createdAt,value
2022-12-08T00:01:18.819Z,1.39
2022-12-08T00:03:46.124Z,1.45
2022-12-08T00:06:23.462Z,1.40
2022-12-08T00:08:50.548Z,1.47
2022-12-08T00:11:18.155Z,1.48
2022-12-08T00:13:46.154Z,1.50
2022-12-08T00:16:13.054Z,1.47
2022-12-08T00:18:39.651Z,1.42
2022-12-08T00:21:07.096Z,1.43
2022-12-08T00:23:33.666Z,1.40
2022-12-08T00:26:02.919Z,1.34
2022-12-08T00:28:29.522Z,1.34
2022-12-08T00:30:57.384Z,1.38
2022-12-08T00:33:24.131Z,1.33
2022-12-08T00:35:50.688Z,1.40
2022-12-08T00:38:17.251Z,1.44
2022-12-08T00:40:44.527Z,1.44
2022-12-08T00:43:11.104Z,1.40
2022-12-08T00:45:37.732Z,1.44
2022-12-08T00:48:06.494Z,1.38
2022-12-08T00:50:33.411Z,1.36
2022-12-08T00:52:59.938Z,1.31
2022-12-08T00:55:26.522Z,1.38
2022-12-08T00:57:53.062Z,1.38
2022-12-08T01:00:20.366Z,1.40
2022-12-08T01:02:46.983Z,1.38
2022-12-08T01:05:15.006Z,1.28
2022-12-08T01:07:41.597Z,1.36
2022-12-08T01:10:08.981Z,1.46
2022-12-08T01:12:35.644Z,1.29
2022-12-08T01:15:02.993Z,1.34
2022-12-08T01:17:29.642Z,1.34
2022-12-08T01:19:56.191Z,1.33
2022-12-08T01:22:24.456Z,1.29
2022-12-08T01:24:51.065Z,1.23
2022-12-08T01:27:17.625Z,1.24
2022-12-08T01:29:44.179Z,1.23
2022-12-08T01:32:10.672Z,1.16
2022-12-08T01:34:37.307Z,1.18
2022-12-08T01:37:03.807Z,1.15
2022-12-08T01:39:31.704Z,1.01
2022-12-08T01:41:58.220Z,0.85
2022-12-08T01:44:51.435Z,0.83
2022-12-08T01:47:18.038Z,0.84
2022-12-08T01:49:44.770Z,0.85
2022-12-08T01:52:15.994Z,0.93
2022-12-08T01:54:49.052Z,0.97
2022-12-08T01:57:18.430Z,0.86
2022-12-08T01:59:48.519Z,0.75
2022-12-08T02:02:15.293Z,0.64
2022-12-08T02:04:41.947Z,0.49
2022-12-08T02:07:10.098Z,0.44
2022-12-08T02:09:39.756Z,0.39
2022-12-08T02:12:09.266Z,0.36
2022-12-08T02:14:35.847Z,0.29
2022-12-08T02:17:10.243Z,0.24
2022-12-08T02:20:05.222Z,0.20
2022-12-08T02:22:39.945Z,0.07
2022-12-08T02:25:15.724Z,0.16
2022-12-08T02:27:55.730Z,0.12
2022-12-08T02:30:26.165Z,0.12
2022-12-08T02:33:32.837Z,0.19
2022-12-08T02:36:08.099Z,0.13
2022-12-08T02:38:47.482Z,0.17
2022-12-08T02:41:25.044Z,0.38
2022-12-08T02:43:58.922Z,0.48
2022-12-08T02:46:30.554Z,0.59
2022-12-08T02:48:59.134Z,0.65
2022-12-08T02:51:27.039Z,0.76
2022-12-08T02:53:53.545Z,0.77
2022-12-08T02:56:37.669Z,0.74
2022-12-08T02:59:19.856Z,0.71
2022-12-08T03:02:01.851Z,0.66
2022-12-08T03:04:41.350Z,0.69
2022-12-08T03:07:15.099Z,0.71
2022-12-08T03:09:47.754Z,0.67
2022-12-08T03:12:25.987Z,0.65
2022-12-08T03:14:55.163Z,0.62
2022-12-08T03:17:25.387Z,0.60
2022-12-08T03:19:54.669Z,0.55
2022-12-08T03:22:25.462Z,0.59
2022-12-08T03:24:52.739Z,0.59
2022-12-08T03:27:21.803Z,0.55
2022-12-08T03:29:50.909Z,0.58
2022-12-08T03:32:23.910Z,0.58
2022-12-08T03:34:51.654Z,0.62
2022-12-08T03:37:18.631Z,0.73
2022-12-08T03:39:46.717Z,0.76
2022-12-08T03:42:13.220Z,0.77
2022-12-08T03:44:39.827Z,0.76
2022-12-08T03:47:06.411Z,0.72
2022-12-08T03:49:32.931Z,0.86
2022-12-08T03:51:59.478Z,0.85
2022-12-08T03:54:26.030Z,0.92
2022-12-08T03:56:53.891Z,0.96
2022-12-08T03:59:20.472Z,1.02
2022-12-08T04:01:46.984Z,1.01
2022-12-08T04:04:13.528Z,1.20
2022-12-08T04:06:40.034Z,1.22
2022-12-08T04:09:06.611Z,1.25
2022-12-08T04:11:33.251Z,1.38
2022-12-08T04:14:01.148Z,1.39
2022-12-08T04:16:27.825Z,1.48
2022-12-08T04:18:55.059Z,1.49
2022-12-08T04:21:21.793Z,1.41
2022-12-08T04:23:48.877Z,1.43
2022-12-08T04:26:15.701Z,1.40
2022-12-08T04:28:42.338Z,1.43
2022-12-08T04:31:10.355Z,1.38
2022-12-08T04:33:36.970Z,1.33
2022-12-08T04:36:05.313Z,1.39
2022-12-08T04:38:32.064Z,1.32
2022-12-08T04:40:58.730Z,1.27
2022-12-08T04:43:25.400Z,1.26
2022-12-08T04:45:51.937Z,1.26
2022-12-08T04:48:19.808Z,1.18
2022-12-08T04:50:46.530Z,1.28
2022-12-08T04:53:14.065Z,1.30
2022-12-08T04:55:41.992Z,1.45
2022-12-08T04:58:12.557Z,1.41
2022-12-08T05:00:39.064Z,1.21
2022-12-08T05:03:05.678Z,1.11
2022-12-08T05:05:33.567Z,0.99
2022-12-08T05:08:00.199Z,0.92
2022-12-08T05:10:26.783Z,0.97
2022-12-08T05:12:53.332Z,0.96
2022-12-08T05:15:20.007Z,1.10
2022-12-08T05:17:46.538Z,1.06
2022-12-08T05:20:13.478Z,1.11
2022-12-08T05:22:41.322Z,1.03
2022-12-08T05:25:08.237Z,1.01
2022-12-08T05:27:35.045Z,0.94
2022-12-08T05:30:01.744Z,0.80
2022-12-08T05:32:28.412Z,0.71
2022-12-08T05:34:54.986Z,0.73
2022-12-08T05:37:21.514Z,0.68
2022-12-08T05:39:49.367Z,0.60
2022-12-08T05:42:19.337Z,0.52
2022-12-08T05:44:48.328Z,0.62
2022-12-08T05:47:14.931Z,0.58
2022-12-08T05:49:41.459Z,0.52
2022-12-08T05:52:07.968Z,0.48
2022-12-08T05:54:34.481Z,0.41
2022-12-08T05:57:02.330Z,0.55
2022-12-08T05:59:28.852Z,0.42
2022-12-08T06:01:55.466Z,0.50
2022-12-08T06:04:22.057Z,0.44
2022-12-08T06:06:48.563Z,0.60
2022-12-08T06:09:15.104Z,0.50
2022-12-08T06:11:42.615Z,0.48
2022-12-08T06:14:12.023Z,0.37
2022-12-08T06:16:38.763Z,0.41
2022-12-08T06:19:05.331Z,0.42
2022-12-08T06:21:31.835Z,0.41
2022-12-08T06:23:58.370Z,0.38
2022-12-08T06:26:24.954Z,0.36
2022-12-08T06:28:51.998Z,0.41
2022-12-08T06:31:21.456Z,0.46
2022-12-08T06:33:48.249Z,0.50
2022-12-08T06:36:17.150Z,0.51
2022-12-08T06:38:44.168Z,0.53
2022-12-08T06:41:11.795Z,0.52
2022-12-08T06:43:38.657Z,0.54
2022-12-08T06:46:06.875Z,0.50
2022-12-08T06:48:35.082Z,0.50
2022-12-08T06:51:07.281Z,0.62
2022-12-08T06:53:33.801Z,0.65
2022-12-08T06:56:00.425Z,0.77
2022-12-08T06:58:26.947Z,0.84
2022-12-08T07:00:53.523Z,0.90
2022-12-08T07:03:20.164Z,0.94
2022-12-08T07:05:48.030Z,0.95
2022-12-08T07:08:14.669Z,1.00
2022-12-08T07:10:41.242Z,1.02
2022-12-08T07:13:07.744Z,0.93
2022-12-08T07:15:34.257Z,0.95
2022-12-08T07:18:00.885Z,0.92
2022-12-08T07:20:27.779Z,0.95
2022-12-08T07:22:55.670Z,0.95
2022-12-08T07:25:22.262Z,0.94
2022-12-08T07:27:48.872Z,1.10
2022-12-08T07:30:15.445Z,1.15
2022-12-08T07:32:41.962Z,1.10
2022-12-08T07:35:09.559Z,1.10
2022-12-08T07:37:37.498Z,0.97
2022-12-08T07:40:07.166Z,0.91
2022-12-08T07:42:34.296Z,0.97
2022-12-08T07:45:00.853Z,1.03
2022-12-08T07:47:27.387Z,1.10
2022-12-08T07:49:53.921Z,1.14
2022-12-08T07:52:20.432Z,1.17
2022-12-08T07:54:47.369Z,1.19
2022-12-08T07:57:15.467Z,1.15
2022-12-08T07:59:41.969Z,1.17
2022-12-08T08:02:24.181Z,1.13
2022-12-08T08:04:51.870Z,1.22
2022-12-08T08:07:18.485Z,1.25
2022-12-08T08:09:45.070Z,1.32
2022-12-08T08:12:30.283Z,1.34
2022-12-08T08:14:59.423Z,1.41
2022-12-08T08:17:26.041Z,1.34
2022-12-08T08:19:52.624Z,1.38
2022-12-08T08:22:19.111Z,1.45
2022-12-08T08:24:45.653Z,1.39
2022-12-08T08:27:12.423Z,1.38
2022-12-08T08:29:38.948Z,1.42
2022-12-08T08:32:06.817Z,1.30
2022-12-08T08:34:33.569Z,1.27
2022-12-08T08:37:00.220Z,1.24
2022-12-08T08:39:26.801Z,1.26
2022-12-08T08:41:53.284Z,1.23
2022-12-08T08:44:19.777Z,1.37
2022-12-08T08:46:46.345Z,1.47
2022-12-08T08:49:14.308Z,1.57
2022-12-08T08:51:41.897Z,1.59
2022-12-08T08:54:08.405Z,1.63
2022-12-08T08:56:34.900Z,1.70
2022-12-08T08:59:01.429Z,1.66
2022-12-08T09:01:28.493Z,1.74
2022-12-08T09:03:55.967Z,1.85
2022-12-08T09:06:24.856Z,2.08
2022-12-08T09:08:51.708Z,2.38
2022-12-08T09:11:18.259Z,2.68
2022-12-08T09:13:47.014Z,2.85
2022-12-08T09:16:13.575Z,2.93
2022-12-08T09:18:40.142Z,3.17
2022-12-08T09:21:08.047Z,3.20
2022-12-08T09:23:36.103Z,3.22
2022-12-08T09:26:03.551Z,3.04
2022-12-08T09:28:30.099Z,3.32
2022-12-08T09:30:56.655Z,3.29
2022-12-08T09:33:23.222Z,3.43
2022-12-08T09:35:49.850Z,3.43
2022-12-08T09:38:16.373Z,3.35
2022-12-08T09:40:49.591Z,3.36
2022-12-08T09:43:33.770Z,3.23
2022-12-08T09:46:01.991Z,3.34
2022-12-08T09:48:35.230Z,3.48
2022-12-08T09:51:04.808Z,3.69
2022-12-08T09:53:36.490Z,3.78
2022-12-08T09:56:08.938Z,3.88
2022-12-08T09:58:45.753Z,4.05
2022-12-08T10:01:12.344Z,3.97
2022-12-08T10:03:40.202Z,4.06
2022-12-08T10:06:15.962Z,4.07
2022-12-08T10:08:48.045Z,3.95
2022-12-08T10:11:25.619Z,3.79
2022-12-08T10:14:04.002Z,3.72
2022-12-08T10:16:34.697Z,3.62
2022-12-08T10:19:11.141Z,3.64
2022-12-08T10:21:39.608Z,3.58
2022-12-08T10:24:13.175Z,3.59
2022-12-08T10:26:41.078Z,3.49
2022-12-08T10:29:11.457Z,3.45
2022-12-08T10:31:37.992Z,3.36
2022-12-08T10:34:15.697Z,3.37
2022-12-08T10:36:47.797Z,3.28
2022-12-08T10:39:34.896Z,3.15
2022-12-08T10:42:08.474Z,3.21
2022-12-08T10:44:49.639Z,3.28
2022-12-08T10:47:16.634Z,3.08
2022-12-08T10:49:43.190Z,3.03
2022-12-08T10:52:22.677Z,3.24
2022-12-08T10:54:52.237Z,3.40
2022-12-08T10:57:23.051Z,3.63
2022-12-08T10:59:49.582Z,3.73
2022-12-08T11:02:20.118Z,3.91
2022-12-08T11:04:47.146Z,4.11
2022-12-08T11:07:22.014Z,4.41
2022-12-08T11:09:53.919Z,4.42
2022-12-08T11:12:23.110Z,4.30
2022-12-08T11:14:54.997Z,4.35
2022-12-08T11:17:26.201Z,4.16
2022-12-08T11:19:58.062Z,3.99
2022-12-08T11:22:27.116Z,4.03
2022-12-08T11:24:58.784Z,4.05
2022-12-08T11:27:26.871Z,4.18
2022-12-08T11:29:53.450Z,4.32
2022-12-08T11:32:21.142Z,4.40
2022-12-08T11:34:51.838Z,4.50
2022-12-08T11:37:23.834Z,4.79
2022-12-08T11:39:53.780Z,4.63
2022-12-08T11:42:24.368Z,4.50
2022-12-08T11:44:57.230Z,4.27
2022-12-08T11:47:28.328Z,4.28
2022-12-08T11:50:02.024Z,4.05
2022-12-08T11:52:33.689Z,3.91
2022-12-08T11:55:04.372Z,3.91
2022-12-08T11:57:30.901Z,3.85
2022-12-08T12:00:00.769Z,3.84
2022-12-08T12:02:29.133Z,3.88
2022-12-08T12:05:01.841Z,3.94
2022-12-08T12:07:52.846Z,4.04
2022-12-08T12:10:40.997Z,4.16
2022-12-08T12:13:29.632Z,4.30
2022-12-08T12:16:30.179Z,4.27
2022-12-08T12:19:00.201Z,4.24
2022-12-08T12:21:33.576Z,4.31
2022-12-08T12:24:05.140Z,4.33
2022-12-08T12:26:34.330Z,4.33
2022-12-08T12:29:03.482Z,4.24
2022-12-08T12:31:34.394Z,4.30
2022-12-08T12:34:06.166Z,4.27
2022-12-08T12:36:46.470Z,4.23
2022-12-08T12:39:14.293Z,4.32
2022-12-08T12:41:45.361Z,4.37
2022-12-08T12:44:50.221Z,4.39
2022-12-08T12:47:46.315Z,4.38
2022-12-08T12:50:35.616Z,4.21
2022-12-08T12:53:06.887Z,4.07
2022-12-08T12:55:53.507Z,4.03
2022-12-08T12:58:34.844Z,3.92
2022-12-08T13:01:38.891Z,3.99
2022-12-08T13:04:08.944Z,3.89
2022-12-08T13:06:40.629Z,3.84
2022-12-08T13:09:18.626Z,3.66
2022-12-08T13:11:49.746Z,3.65
2022-12-08T13:14:31.717Z,3.71
2022-12-08T13:17:00.022Z,3.70
2022-12-08T13:19:31.508Z,3.68
2022-12-08T13:21:58.343Z,3.74
2022-12-08T13:24:33.781Z,3.88
2022-12-08T13:27:31.880Z,3.85
2022-12-08T13:30:36.174Z,3.71
2022-12-08T13:33:17.651Z,3.73
2022-12-08T13:35:53.389Z,3.71
2022-12-08T13:38:22.389Z,3.71
2022-12-08T13:40:50.361Z,3.66
2022-12-08T13:43:22.926Z,3.63
2022-12-08T13:55:12.224Z,3.23
2022-12-08T13:57:26.934Z,3.22
2022-12-08T13:59:53.489Z,3.28
2022-12-08T14:02:27.478Z,3.18
2022-12-08T14:05:17.553Z,3.19
2022-12-08T14:07:43.699Z,3.26
2022-12-08T14:10:16.401Z,3.27
2022-12-08T14:12:47.016Z,3.28
2022-12-08T14:15:15.632Z,3.35
2022-12-08T14:17:51.223Z,3.38
2022-12-08T14:20:22.434Z,3.38
2022-12-08T14:22:52.109Z,3.31
2022-12-08T14:25:19.533Z,3.38
2022-12-08T14:27:46.936Z,3.31
2022-12-08T14:30:20.921Z,3.28
2022-12-08T14:32:49.491Z,3.28
2022-12-08T14:35:22.136Z,3.18
2022-12-08T14:37:52.871Z,3.11
2022-12-08T14:40:23.818Z,3.15
2022-12-08T14:42:52.978Z,2.98
2022-12-08T14:45:20.285Z,2.89
2022-12-08T14:47:47.159Z,2.93
2022-12-08T14:50:40.309Z,2.89
2022-12-08T14:53:14.372Z,2.93
2022-12-08T14:55:41.242Z,2.84
2022-12-08T14:58:20.809Z,2.70
2022-12-08T15:00:48.820Z,2.70
2022-12-08T15:03:16.557Z,2.71
2022-12-08T15:05:43.282Z,2.71
2022-12-08T15:08:12.088Z,2.57
2022-12-08T15:10:38.896Z,2.45
2022-12-08T15:13:19.689Z,2.31
2022-12-08T15:15:49.366Z,2.18
2022-12-08T15:18:17.811Z,2.22
2022-12-08T15:20:46.645Z,2.28
2022-12-08T15:23:25.293Z,2.22
2022-12-08T15:25:52.954Z,2.08
2022-12-08T15:28:24.006Z,2.01
2022-12-08T15:30:54.525Z,1.99
2022-12-08T15:33:21.224Z,2.01
2022-12-08T15:35:48.962Z,2.10
2022-12-08T15:38:22.498Z,1.99
2022-12-08T15:40:49.255Z,1.90
2022-12-08T15:43:15.808Z,1.86
2022-12-08T15:45:51.933Z,1.83
2022-12-08T15:48:26.753Z,1.79
2022-12-08T15:50:54.066Z,1.82
2022-12-08T15:53:22.136Z,1.81
2022-12-08T15:56:18.843Z,1.77
2022-12-08T15:58:54.669Z,1.74
2022-12-08T16:01:22.658Z,1.79
2022-12-08T16:09:31.417Z,1.58
2022-12-08T16:12:06.706Z,1.62
2022-12-08T16:15:39.202Z,1.67
2022-12-08T16:17:21.371Z,1.72
2022-12-08T16:19:47.887Z,1.77
2022-12-08T16:22:52.431Z,1.74
2022-12-08T16:25:21.714Z,1.82
2022-12-08T16:28:01.204Z,1.89
2022-12-08T16:30:28.235Z,1.91
2022-12-08T16:32:54.784Z,1.92
2022-12-08T16:35:21.345Z,1.88
2022-12-08T16:37:48.711Z,1.92
2022-12-08T16:40:16.649Z,2.00
2022-12-08T16:42:43.235Z,1.98
2022-12-08T16:45:12.859Z,1.91
2022-12-08T16:47:40.894Z,1.80
2022-12-08T16:50:10.372Z,1.96
2022-12-08T16:52:37.347Z,2.05
2022-12-08T16:55:07.710Z,2.02
2022-12-08T16:57:35.730Z,2.05
2022-12-08T17:00:03.155Z,2.06
2022-12-08T17:02:31.029Z,2.07
2022-12-08T17:04:57.609Z,2.03
2022-12-08T17:07:24.180Z,2.12
2022-12-08T17:09:50.815Z,2.13
2022-12-08T17:12:17.351Z,2.14
2022-12-08T17:14:45.256Z,2.17
2022-12-08T17:17:11.820Z,2.15
2022-12-08T17:19:38.345Z,2.16
2022-12-08T17:22:04.882Z,2.17
2022-12-08T17:24:31.945Z,2.24
2022-12-08T17:26:59.020Z,2.38
2022-12-08T17:29:25.525Z,2.35
2022-12-08T17:31:53.424Z,2.37
2022-12-08T17:34:20.024Z,2.32
2022-12-08T17:36:46.548Z,2.27
2022-12-08T17:39:18.113Z,2.28
2022-12-08T17:41:45.426Z,2.35
2022-12-08T17:44:13.459Z,2.37
2022-12-08T17:46:43.423Z,2.23
2022-12-08T17:49:15.632Z,2.19
2022-12-08T17:51:42.180Z,2.16
2022-12-08T17:54:08.753Z,2.21
2022-12-08T17:56:35.305Z,2.20
2022-12-08T17:59:03.047Z,2.19
2022-12-08T18:01:29.664Z,2.26
2022-12-08T18:03:57.817Z,2.21
2022-12-08T18:06:29.615Z,2.31
2022-12-08T18:11:26.458Z,2.31
2022-12-08T18:13:53.695Z,2.40
2022-12-08T18:16:23.214Z,2.43
2022-12-08T18:18:50.478Z,2.26
2022-12-08T18:21:23.241Z,2.16
2022-12-08T18:23:51.725Z,2.24
2022-12-08T18:26:18.338Z,2.26
2022-12-08T18:28:44.903Z,2.33
2022-12-08T18:31:13.543Z,2.39
2022-12-08T18:33:41.648Z,2.23
2022-12-08T18:36:09.184Z,2.22
2022-12-08T18:38:36.347Z,2.23
2022-12-08T18:41:09.080Z,2.24
2022-12-08T18:43:36.661Z,2.19
2022-12-08T18:46:04.361Z,2.29
2022-12-08T18:48:30.996Z,2.21
2022-12-08T18:50:57.526Z,2.27
2022-12-08T18:53:24.031Z,2.27
2022-12-08T18:55:50.581Z,2.34
2022-12-08T18:58:18.570Z,2.36
2022-12-08T19:00:45.193Z,2.31
2022-12-08T19:03:11.881Z,2.26
2022-12-08T19:05:38.636Z,2.28
2022-12-08T19:08:05.967Z,2.36
2022-12-08T19:10:35.271Z,2.38
2022-12-08T19:13:01.819Z,2.37
2022-12-08T19:15:29.737Z,2.38
2022-12-08T19:17:56.291Z,2.30
2022-12-08T19:20:22.796Z,2.27
2022-12-08T19:22:49.609Z,2.38
2022-12-08T19:25:16.171Z,2.39
2022-12-08T19:27:42.658Z,2.47
2022-12-08T19:30:10.646Z,2.49
2022-12-08T19:32:38.494Z,2.47
2022-12-08T19:35:05.271Z,2.51
2022-12-08T19:37:31.794Z,2.50
2022-12-08T19:39:58.305Z,2.37
2022-12-08T19:42:24.893Z,2.33
2022-12-08T19:44:51.450Z,2.44
2022-12-08T19:47:18.399Z,2.46
2022-12-08T19:49:46.612Z,2.38
2022-12-08T19:52:13.204Z,2.40
2022-12-08T19:54:39.773Z,2.39
2022-12-08T19:57:06.274Z,2.38
2022-12-08T19:59:32.861Z,2.55
2022-12-08T20:01:59.570Z,2.54
2022-12-08T20:04:27.287Z,2.47
2022-12-08T20:06:56.114Z,2.49
2022-12-08T20:09:23.841Z,2.57
2022-12-08T20:11:50.536Z,2.56
2022-12-08T20:14:17.785Z,2.50
2022-12-08T20:16:44.388Z,2.47
2022-12-08T20:19:11.032Z,2.42
2022-12-08T20:21:39.148Z,2.39
2022-12-08T20:24:07.482Z,2.40
2022-12-08T20:26:34.184Z,2.44
2022-12-08T20:29:00.767Z,2.37
2022-12-08T20:31:30.655Z,2.23
2022-12-08T20:33:57.300Z,2.26
2022-12-08T20:36:23.913Z,2.17
2022-12-08T20:38:52.736Z,2.03
2022-12-08T20:41:21.319Z,1.93
2022-12-08T20:43:47.895Z,1.81
2022-12-08T20:46:16.457Z,1.73
2022-12-08T20:48:43.280Z,1.79
2022-12-08T20:51:13.403Z,1.74
2022-12-08T20:53:40.022Z,1.71
2022-12-08T20:56:07.390Z,1.60
2022-12-08T20:58:35.382Z,1.70
2022-12-08T21:01:08.663Z,1.66
2022-12-08T21:03:35.300Z,1.53
2022-12-08T21:06:01.956Z,1.60
2022-12-08T21:08:28.580Z,1.48
2022-12-08T21:10:55.816Z,1.41
2022-12-08T21:13:22.421Z,1.33
2022-12-08T21:15:50.482Z,1.33
2022-12-08T21:18:17.378Z,1.31
2022-12-08T21:20:44.194Z,1.27
2022-12-08T21:23:11.126Z,1.28
2022-12-08T21:25:40.471Z,1.25
2022-12-08T21:28:07.088Z,1.23
2022-12-08T21:30:33.698Z,1.29
2022-12-08T21:33:01.753Z,1.27
2022-12-08T21:35:28.543Z,1.30
2022-12-08T21:37:55.269Z,1.25
2022-12-08T21:40:21.965Z,1.25
2022-12-08T21:42:48.973Z,1.23
2022-12-08T21:45:17.662Z,1.18
2022-12-08T21:47:45.705Z,1.24
2022-12-08T21:50:14.710Z,1.22
2022-12-08T21:52:43.719Z,1.29
2022-12-08T21:55:11.357Z,1.30
2022-12-08T21:57:38.044Z,1.31
2022-12-08T22:00:07.335Z,1.33
2022-12-08T22:02:34.294Z,1.24
2022-12-08T22:05:00.959Z,1.15
2022-12-08T22:07:28.981Z,1.06
2022-12-08T22:09:55.781Z,1.06
2022-12-08T22:12:22.387Z,1.03
2022-12-08T22:14:48.922Z,1.00
2022-12-08T22:17:15.663Z,0.85
2022-12-08T22:19:42.334Z,0.81
2022-12-08T22:22:09.088Z,0.80
2022-12-08T22:24:37.148Z,0.88
2022-12-08T22:27:03.992Z,0.78
2022-12-08T22:29:30.782Z,0.68
2022-12-08T22:31:57.672Z,0.67
2022-12-08T22:34:24.480Z,0.72
2022-12-08T22:36:51.199Z,0.82
2022-12-08T22:39:17.910Z,0.90
2022-12-08T22:41:45.941Z,0.80
2022-12-08T22:44:14.571Z,0.83
2022-12-08T22:46:41.315Z,0.93
2022-12-08T22:49:08.262Z,0.95
2022-12-08T22:51:35.951Z,0.98
2022-12-08T22:54:02.899Z,1.07
2022-12-08T22:56:29.625Z,1.06
2022-12-08T22:58:58.002Z,0.92
2022-12-08T23:01:26.769Z,0.85
2022-12-08T23:03:53.647Z,0.96
2022-12-08T23:06:20.437Z,0.96
2022-12-08T23:08:47.282Z,0.89
2022-12-08T23:11:13.914Z,0.93
2022-12-08T23:13:40.796Z,0.95
2022-12-08T23:16:09.911Z,1.01
2022-12-08T23:18:37.029Z,0.90
2022-12-08T23:21:05.089Z,0.93
2022-12-08T23:23:31.628Z,1.03
2022-12-08T23:25:58.211Z,1.05
2022-12-08T23:28:24.888Z,0.91
2022-12-08T23:30:51.603Z,0.85
2022-12-08T23:33:19.691Z,0.98
2022-12-08T23:35:54.932Z,0.79
2022-12-08T23:38:21.420Z,0.84
2022-12-08T23:40:47.978Z,0.87
2022-12-08T23:43:14.477Z,0.79
2022-12-08T23:45:41.184Z,0.81
2022-12-08T23:48:07.833Z,0.79
2022-12-08T23:50:35.676Z,0.81
2022-12-08T23:53:02.380Z,0.67
2022-12-08T23:55:28.910Z,0.69
2022-12-08T23:57:55.661Z,0.68
